This is the latest recevied weather packets stored in our database for station/object N7BTW-13. If no packets are shown the sender has not sent any weather packets the latest 10 day(s).
| Time | Temp. | Humidity | Pressure | Rain* | Wind** | Luminosity | Snow |
|---|---|---|---|---|---|---|---|
| 1787788209 | 28.33° C | 46% | - | 0 mm | - | - | - |
| 1787787608 | 28.89° C | 45% | - | 0 mm | - | - | - |
| 1787787006 | 29.44° C | 43% | - | 0 mm | - | - | - |
| 1787786407 | 30.56° C | 42% | - | 0 mm | - | - | - |
| 1787785809 | 29.44° C | 43% | - | 0 mm | - | - | - |
| 1787785211 | 30° C | 42% | - | 0 mm | - | - | - |
| 1787784608 | 29.44° C | 42% | - | 0 mm | - | - | - |
| 1787784006 | 29.44° C | 43% | - | 0 mm | - | - | - |
| 1787783409 | 28.89° C | 44% | - | 0 mm | - | - | - |
| 1787782809 | 28.89° C | 43% | - | 0 mm | - | - | - |
| 1787782208 | 29.44° C | 44% | - | 0 mm | - | - | - |
| 1787781607 | 28.33° C | 46% | - | 0 mm | - | - | - |
| 1787781009 | 28.33° C | 46% | - | 0 mm | - | - | - |
| 1787780408 | 27.78° C | 46% | - | 0 mm | - | - | - |
| 1787779808 | 27.22° C | 47% | - | 0 mm | - | - | - |
| 1787779209 | 27.22° C | 47% | - | 0 mm | - | - | - |
| 1787778607 | 26.67° C | 49% | - | 0 mm | - | - | - |
| 1787778007 | 26.67° C | 49% | - | 0 mm | - | - | - |
| 1787777407 | 26.67° C | 49% | - | 0 mm | - | - | - |
| 1787776812 | 25.56° C | 51% | - | 0 mm | - | - | - |
| 1787776211 | 25.56° C | 52% | - | 0 mm | - | - | - |
| 1787775607 | 25.56° C | 53% | - | 0 mm | - | - | - |
| 1787775009 | 24.44° C | 56% | - | 0 mm | - | - | - |
| 1787774409 | 23.89° C | 58% | - | 0 mm | - | - | - |
| 1787773808 | 24.44° C | 57% | - | 0 mm | - | - | - |
* Rain latest hour (hover to see other rain measurements)
** Current wind speed in m/s (hover to see current wind gust speed)